Time;durP1;ratioP1;P1;durP2;ratioP2;P2;SDS_P1;SDS_P2;PMS_P1;PMS_P2;Temp;Humidity;BMP_temperature;BMP_pressure;BME280_temperature;BME280_humidity;BME280_pressure;Samples;Min_cycle;Max_cycle;Signal;HPM_P1;HPM_P2
2021/10/26 00:00:17;;;;;;;13.75;8.30;;;10.00;99.90;;;;;;5047932;28;20079;-53
2021/10/26 00:02:43;;;;;;;11.05;8.93;;;10.00;99.90;;;;;;5030479;28;20127;-52
2021/10/26 00:05:09;;;;;;;9.35;8.25;;;10.00;99.90;;;;;;5048803;28;20037;-55
2021/10/26 00:07:34;;;;;;;12.38;8.82;;;10.00;99.90;;;;;;5030500;28;20155;-52
2021/10/26 00:10:00;;;;;;;13.52;10.00;;;10.10;99.90;;;;;;5047311;28;20496;-54
2021/10/26 00:12:26;;;;;;;12.43;10.73;;;10.00;99.90;;;;;;5044780;28;20025;-52
2021/10/26 00:14:52;;;;;;;15.25;11.10;;;10.10;99.90;;;;;;5047930;28;20565;-52
2021/10/26 00:17:17;;;;;;;18.70;11.75;;;10.10;99.90;;;;;;5048155;28;20059;-54
2021/10/26 00:19:43;;;;;;;14.60;12.20;;;10.00;99.90;;;;;;5047603;28;20037;-52
2021/10/26 00:22:09;;;;;;;18.83;14.10;;;10.00;99.90;;;;;;5048047;28;20030;-54
2021/10/26 00:24:35;;;;;;;16.10;13.18;;;10.00;99.90;;;;;;5047810;28;20044;-51
2021/10/26 00:27:01;;;;;;;17.40;14.60;;;10.00;99.90;;;;;;5039074;28;20731;-52
2021/10/26 00:29:27;;;;;;;18.70;15.13;;;10.00;99.90;;;;;;5047397;28;20017;-54
2021/10/26 00:31:54;;;;;;;17.50;14.48;;;10.00;99.90;;;;;;5025100;28;20767;-52
2021/10/26 00:34:20;;;;;;;19.25;14.70;;;10.00;99.90;;;;;;5047563;28;20029;-51
2021/10/26 00:36:46;;;;;;;20.08;15.45;;;10.00;99.90;;;;;;5046981;28;20343;-52
2021/10/26 00:39:11;;;;;;;19.60;15.18;;;10.00;99.90;;;;;;5050184;28;20090;-54
2021/10/26 00:41:37;;;;;;;19.02;15.82;;;10.00;99.90;;;;;;5067831;28;20044;-56
2021/10/26 00:44:03;;;;;;;21.67;16.92;;;10.00;99.90;;;;;;5059948;28;20029;-54
2021/10/26 00:46:31;;;;;;;20.45;16.02;;;10.00;99.90;;;;;;5029669;28;20021;-53
2021/10/26 00:48:59;;;;;;;20.30;16.75;;;10.00;99.90;;;;;;5028788;28;20104;-53
2021/10/26 00:51:25;;;;;;;18.83;14.98;;;10.00;99.90;;;;;;5047137;28;20017;-55
2021/10/26 00:53:51;;;;;;;19.63;15.23;;;10.00;99.90;;;;;;5047049;28;20033;-54
2021/10/26 00:56:17;;;;;;;21.60;16.52;;;10.00;99.90;;;;;;5012931;28;20029;-54
2021/10/26 00:58:43;;;;;;;21.83;16.98;;;10.00;99.90;;;;;;5040737;28;20401;-52
2021/10/26 01:01:08;;;;;;;22.98;18.00;;;10.00;99.90;;;;;;5044866;28;20029;-53
2021/10/26 01:03:34;;;;;;;18.77;15.63;;;9.90;99.90;;;;;;5072091;22;21344;-53
2021/10/26 01:05:59;;;;;;;18.67;14.38;;;9.90;99.90;;;;;;5081075;28;20024;-55
2021/10/26 01:08:25;;;;;;;21.20;15.10;;;9.90;99.90;;;;;;5074552;28;20539;-55
2021/10/26 01:10:51;;;;;;;18.63;15.38;;;9.90;99.90;;;;;;5066178;28;20067;-54
2021/10/26 01:13:19;;;;;;;24.80;17.52;;;9.90;99.90;;;;;;5067069;28;20052;-52
2021/10/26 01:15:46;;;;;;;19.90;16.90;;;9.90;99.90;;;;;;5067118;28;20096;-52
2021/10/26 01:18:13;;;;;;;22.00;15.35;;;9.90;99.90;;;;;;5067682;28;20163;-55
2021/10/26 01:20:38;;;;;;;20.83;15.25;;;9.90;99.90;;;;;;5067193;28;20042;-54
2021/10/26 01:23:04;;;;;;;21.40;17.83;;;9.90;99.90;;;;;;5067273;28;20034;-55
2021/10/26 01:25:30;;;;;;;26.20;17.38;;;9.90;99.90;;;;;;5067275;28;20036;-51
2021/10/26 01:27:56;;;;;;;23.73;17.80;;;9.90;99.90;;;;;;5067471;28;20024;-53
2021/10/26 01:30:26;;;;;;;23.35;18.67;;;9.90;99.90;;;;;;5066702;28;20028;-52
2021/10/26 01:32:53;;;;;;;20.80;17.10;;;9.90;99.90;;;;;;5065673;28;20048;-56
2021/10/26 01:35:18;;;;;;;24.38;18.05;;;9.90;99.90;;;;;;5057018;28;20032;-52
2021/10/26 01:37:44;;;;;;;21.58;18.15;;;9.90;99.90;;;;;;5050163;28;20033;-56
2021/10/26 01:40:10;;;;;;;23.15;18.58;;;10.00;99.90;;;;;;5073609;28;20071;-56
2021/10/26 01:42:37;;;;;;;23.80;18.17;;;10.00;99.90;;;;;;5047271;28;20524;-56
2021/10/26 01:45:03;;;;;;;22.92;18.02;;;10.00;99.90;;;;;;5064322;28;20028;-55
2021/10/26 01:47:29;;;;;;;24.67;17.92;;;9.90;99.90;;;;;;5070938;28;20055;-54
2021/10/26 01:49:55;;;;;;;22.35;17.92;;;10.00;99.90;;;;;;5068654;28;20104;-53
2021/10/26 01:52:20;;;;;;;24.17;19.00;;;10.00;99.90;;;;;;5069145;28;20033;-56
2021/10/26 01:54:46;;;;;;;27.25;20.15;;;10.00;99.90;;;;;;5070108;28;20404;-55
2021/10/26 01:57:16;;;;;;;23.73;19.15;;;10.00;99.90;;;;;;5069936;28;20033;-54
2021/10/26 01:59:42;;;;;;;24.90;18.23;;;10.00;99.90;;;;;;5068427;28;20020;-51
2021/10/26 02:02:07;;;;;;;28.38;21.33;;;9.90;99.90;;;;;;5070538;28;20496;-56
2021/10/26 02:04:33;;;;;;;22.77;18.80;;;10.00;99.90;;;;;;5068805;28;20040;-56
2021/10/26 02:06:58;;;;;;;25.35;18.95;;;9.90;99.90;;;;;;5070796;28;20695;-56
2021/10/26 02:09:24;;;;;;;28.00;21.38;;;9.90;99.90;;;;;;5069538;28;20021;-50
2021/10/26 02:11:50;;;;;;;24.77;19.05;;;10.00;99.90;;;;;;5070332;28;20020;-54
2021/10/26 02:14:16;;;;;;;28.67;20.63;;;10.00;99.90;;;;;;5070166;28;20029;-53
2021/10/26 02:16:42;;;;;;;23.63;19.65;;;10.00;99.90;;;;;;5070565;28;20625;-55
2021/10/26 02:19:07;;;;;;;28.20;20.65;;;10.00;99.90;;;;;;5069714;28;20033;-56
2021/10/26 02:21:33;;;;;;;28.35;21.38;;;10.00;99.90;;;;;;5070183;28;20036;-56
2021/10/26 02:23:59;;;;;;;23.55;18.33;;;10.00;99.90;;;;;;5069649;28;20154;-53
2021/10/26 02:26:24;;;;;;;31.30;21.63;;;10.00;99.90;;;;;;5069369;28;20515;-56
2021/10/26 02:28:50;;;;;;;25.88;19.55;;;10.00;99.90;;;;;;5069867;28;20412;-54
2021/10/26 02:31:15;;;;;;;27.98;21.70;;;10.00;99.90;;;;;;5069626;28;20056;-52
2021/10/26 02:33:41;;;;;;;21.83;18.83;;;10.00;99.90;;;;;;5069620;28;20028;-56
2021/10/26 02:36:07;;;;;;;29.10;20.92;;;10.00;99.90;;;;;;5070344;28;20040;-56
2021/10/26 02:38:33;;;;;;;28.42;20.92;;;10.00;99.90;;;;;;5069852;28;20031;-56
2021/10/26 02:40:59;;;;;;;24.08;19.73;;;10.00;99.90;;;;;;5074550;28;20033;-56
2021/10/26 02:43:25;;;;;;;26.80;20.95;;;10.00;99.90;;;;;;5069524;28;20036;-54
2021/10/26 02:45:51;;;;;;;26.83;19.05;;;10.00;99.90;;;;;;5070200;28;20017;-55
2021/10/26 02:48:17;;;;;;;26.23;20.77;;;10.00;99.90;;;;;;5070015;28;20450;-56
2021/10/26 02:50:42;;;;;;;26.95;20.50;;;10.00;99.90;;;;;;5069365;28;20034;-56
2021/10/26 02:53:08;;;;;;;25.67;19.33;;;10.00;99.90;;;;;;5069671;28;20470;-55
2021/10/26 02:55:33;;;;;;;32.60;20.08;;;10.00;99.90;;;;;;5067480;28;20043;-54
2021/10/26 02:57:59;;;;;;;24.73;18.95;;;10.00;99.90;;;;;;5069749;28;20090;-56
2021/10/26 03:00:24;;;;;;;27.30;20.73;;;10.00;99.90;;;;;;5064264;28;20021;-53
2021/10/26 03:02:50;;;;;;;28.30;21.05;;;10.00;99.90;;;;;;5049472;28;20029;-55
2021/10/26 03:05:16;;;;;;;27.33;20.95;;;10.00;99.90;;;;;;5067580;28;20020;-55
2021/10/26 03:07:44;;;;;;;24.48;19.08;;;10.00;99.90;;;;;;5069373;28;20547;-56
2021/10/26 03:10:11;;;;;;;24.48;18.50;;;10.00;99.90;;;;;;5057591;28;20063;-56
2021/10/26 03:12:37;;;;;;;24.65;19.85;;;9.90;99.90;;;;;;5069254;28;20028;-54
2021/10/26 03:15:08;;;;;;;24.85;19.42;;;9.90;99.90;;;;;;5069115;28;20028;-54
2021/10/26 03:17:34;;;;;;;25.17;19.48;;;9.90;99.90;;;;;;5068582;28;20472;-56
2021/10/26 03:20:00;;;;;;;31.23;19.60;;;9.90;99.90;;;;;;5068462;28;20488;-51
2021/10/26 03:22:26;;;;;;;25.33;19.23;;;9.90;99.90;;;;;;5067929;28;20040;-55
2021/10/26 03:24:53;;;;;;;22.52;17.95;;;9.90;99.90;;;;;;5069343;28;20093;-53
2021/10/26 03:27:19;;;;;;;23.83;19.63;;;9.90;99.90;;;;;;5069071;28;20016;-55
2021/10/26 03:29:45;;;;;;;27.70;19.65;;;9.90;99.90;;;;;;5068921;28;20564;-55
2021/10/26 03:32:10;;;;;;;30.70;21.35;;;9.90;99.90;;;;;;5068645;28;20028;-53
2021/10/26 03:34:36;;;;;;;27.02;20.65;;;9.90;99.90;;;;;;5068867;28;20028;-56
2021/10/26 03:37:04;;;;;;;30.65;21.30;;;9.90;99.90;;;;;;5068744;28;20511;-55
2021/10/26 03:39:30;;;;;;;29.42;19.92;;;9.90;99.90;;;;;;5068409;28;20633;-55
2021/10/26 03:41:56;;;;;;;26.08;18.63;;;9.90;99.90;;;;;;5068388;28;20036;-53
2021/10/26 03:44:22;;;;;;;34.28;20.20;;;9.80;99.90;;;;;;5068219;28;20028;-57
2021/10/26 03:46:47;;;;;;;27.42;19.50;;;9.80;99.90;;;;;;5068572;28;20031;-56
2021/10/26 03:49:13;;;;;;;26.60;19.63;;;9.70;99.90;;;;;;5067957;28;20025;-53
2021/10/26 03:51:39;;;;;;;26.55;18.67;;;9.70;99.90;;;;;;5068225;28;20036;-56
2021/10/26 03:54:05;;;;;;;25.02;18.23;;;9.60;99.90;;;;;;5068443;28;20050;-54
2021/10/26 03:56:30;;;;;;;25.02;18.20;;;9.60;99.90;;;;;;5068743;28;20573;-55
2021/10/26 03:58:57;;;;;;;24.27;18.13;;;9.60;99.90;;;;;;5069239;28;20039;-55
2021/10/26 04:01:23;;;;;;;27.35;20.17;;;9.50;99.90;;;;;;5064218;28;20020;-54
2021/10/26 04:03:49;;;;;;;24.17;19.20;;;9.50;99.90;;;;;;5061502;28;20025;-57
2021/10/26 04:06:20;;;;;;;32.95;21.13;;;9.40;99.90;;;;;;5061709;28;20439;-53
2021/10/26 04:11:17;;;;;;;27.30;19.25;;;9.40;99.90;;;;;;5067937;28;20112;-55
2021/10/26 04:13:43;;;;;;;24.27;18.23;;;9.40;99.90;;;;;;5068277;28;20059;-55
2021/10/26 04:16:09;;;;;;;26.08;18.17;;;9.40;99.90;;;;;;5068003;28;20039;-56
2021/10/26 04:18:35;;;;;;;26.63;19.48;;;9.40;99.90;;;;;;5068305;28;20442;-56
2021/10/26 04:21:00;;;;;;;25.70;18.98;;;9.40;99.90;;;;;;5067662;28;20060;-52
2021/10/26 04:23:26;;;;;;;24.80;19.52;;;9.40;99.90;;;;;;5067950;28;20040;-55
2021/10/26 04:25:52;;;;;;;23.80;18.33;;;9.40;99.90;;;;;;5067086;28;20119;-56
2021/10/26 04:28:19;;;;;;;20.77;16.88;;;9.50;99.90;;;;;;5066988;28;20100;-53
2021/10/26 04:30:45;;;;;;;27.25;18.95;;;9.40;99.90;;;;;;5067615;28;20034;-53
2021/10/26 04:33:11;;;;;;;25.90;19.25;;;9.50;99.90;;;;;;5057194;28;20028;-56
2021/10/26 04:35:37;;;;;;;30.02;21.17;;;9.50;99.90;;;;;;5063951;28;20124;-56
2021/10/26 04:38:04;;;;;;;26.65;20.02;;;9.50;99.90;;;;;;5068596;28;20100;-54
2021/10/26 04:40:33;;;;;;;31.60;20.70;;;9.50;99.90;;;;;;5069069;28;20056;-53
2021/10/26 04:43:01;;;;;;;26.50;19.35;;;9.50;99.90;;;;;;5068879;28;20059;-56
2021/10/26 04:45:27;;;;;;;33.42;20.38;;;9.50;99.90;;;;;;5068264;28;20243;-56
2021/10/26 04:47:53;;;;;;;29.35;20.75;;;9.50;99.90;;;;;;5067757;28;20392;-53
2021/10/26 04:50:19;;;;;;;27.60;20.70;;;9.50;99.90;;;;;;5067622;28;20024;-56
2021/10/26 04:52:45;;;;;;;27.35;18.80;;;9.50;99.90;;;;;;5067499;28;20488;-57
2021/10/26 04:55:11;;;;;;;27.42;19.58;;;9.50;99.90;;;;;;5066589;28;20055;-52
2021/10/26 04:57:39;;;;;;;29.15;19.40;;;9.50;99.90;;;;;;5068385;28;20032;-53
2021/10/26 05:00:06;;;;;;;27.67;21.98;;;9.50;99.90;;;;;;5067071;28;20504;-56
2021/10/26 05:02:32;;;;;;;31.02;21.92;;;9.50;99.90;;;;;;5067621;28;20078;-55
2021/10/26 05:04:57;;;;;;;31.83;20.90;;;9.50;99.90;;;;;;5066388;28;20028;-54
2021/10/26 05:07:24;;;;;;;32.00;20.80;;;9.60;99.90;;;;;;5068169;28;20036;-51
2021/10/26 05:09:50;;;;;;;31.67;21.58;;;9.50;99.90;;;;;;5067050;28;20085;-52
2021/10/26 05:12:15;;;;;;;33.08;22.55;;;9.60;99.90;;;;;;5067465;28;20527;-56
2021/10/26 05:14:41;;;;;;;33.42;22.75;;;9.60;99.90;;;;;;5067671;28;20020;-53
2021/10/26 05:17:07;;;;;;;34.58;23.20;;;9.70;99.90;;;;;;5067878;28;20388;-55
2021/10/26 05:19:34;;;;;;;29.77;21.35;;;9.70;99.90;;;;;;5067110;28;20063;-55
2021/10/26 05:21:59;;;;;;;32.25;23.13;;;9.70;99.90;;;;;;5071642;28;20588;-54
2021/10/26 05:24:26;;;;;;;29.95;21.80;;;9.70;99.90;;;;;;5070403;28;20024;-55
2021/10/26 05:26:52;;;;;;;33.20;23.63;;;9.70;99.90;;;;;;5071745;28;20016;-51
2021/10/26 05:29:18;;;;;;;31.40;22.70;;;9.70;99.90;;;;;;5070185;28;20025;-52
2021/10/26 05:31:44;;;;;;;30.55;21.92;;;9.60;99.90;;;;;;5070602;28;20012;-54
2021/10/26 05:34:09;;;;;;;33.85;23.08;;;9.70;99.90;;;;;;5070440;28;20686;-53
2021/10/26 05:36:38;;;;;;;32.88;22.52;;;9.70;99.90;;;;;;5071015;28;20032;-55
2021/10/26 05:39:07;;;;;;;35.00;22.02;;;9.70;99.90;;;;;;5072012;28;20039;-56
2021/10/26 05:41:32;;;;;;;33.55;22.52;;;9.70;99.90;;;;;;5091635;28;20032;-55
2021/10/26 05:43:58;;;;;;;33.92;23.90;;;9.70;99.90;;;;;;5071592;28;20047;-53
2021/10/26 05:46:24;;;;;;;36.25;23.63;;;9.70;99.90;;;;;;5070994;28;20028;-57
2021/10/26 05:48:49;;;;;;;32.50;20.95;;;9.70;99.90;;;;;;5070232;28;20043;-53
2021/10/26 05:51:15;;;;;;;36.70;23.00;;;9.70;99.90;;;;;;5069294;28;20031;-54
2021/10/26 05:53:41;;;;;;;30.85;21.77;;;9.70;99.90;;;;;;5069771;28;20396;-55
2021/10/26 05:56:06;;;;;;;32.35;23.25;;;9.70;99.90;;;;;;5068902;28;20444;-53
2021/10/26 05:58:32;;;;;;;34.72;22.75;;;9.70;99.90;;;;;;5071077;28;20431;-51
2021/10/26 06:00:57;;;;;;;31.83;22.45;;;9.70;99.90;;;;;;5070637;28;20056;-53
2021/10/26 06:03:23;;;;;;;35.80;23.55;;;9.70;99.90;;;;;;5070662;28;20035;-51
2021/10/26 06:05:49;;;;;;;33.22;21.50;;;9.70;99.90;;;;;;5071262;28;20473;-52
2021/10/26 06:08:15;;;;;;;36.30;22.20;;;9.70;99.90;;;;;;5070297;28;20484;-53
2021/10/26 06:10:46;;;;;;;33.88;24.45;;;9.70;99.90;;;;;;5070088;28;20056;-54
2021/10/26 06:13:14;;;;;;;32.70;22.25;;;9.70;99.90;;;;;;5068828;28;20024;-55
2021/10/26 06:15:40;;;;;;;32.50;22.92;;;9.70;99.90;;;;;;5070286;28;20048;-52
2021/10/26 06:18:06;;;;;;;34.38;24.05;;;9.70;99.90;;;;;;5070568;28;20044;-53
2021/10/26 06:20:32;;;;;;;41.30;23.40;;;9.70;99.90;;;;;;5070221;28;20021;-53
2021/10/26 06:22:58;;;;;;;33.40;24.08;;;9.70;99.90;;;;;;5070240;28;20027;-55
2021/10/26 06:25:23;;;;;;;42.03;26.38;;;9.70;99.90;;;;;;5069845;28;20039;-54
2021/10/26 06:27:49;;;;;;;37.33;24.80;;;9.70;99.90;;;;;;5070268;28;20024;-54
2021/10/26 06:30:14;;;;;;;36.53;24.60;;;9.70;99.90;;;;;;5068617;28;20043;-56
2021/10/26 06:32:44;;;;;;;39.58;24.50;;;9.70;99.90;;;;;;5067610;28;20019;-53
2021/10/26 06:35:11;;;;;;;33.25;23.42;;;9.70;99.90;;;;;;5065372;28;20497;-56
2021/10/26 06:37:39;;;;;;;33.25;24.20;;;9.70;99.90;;;;;;5069744;28;20032;-54
2021/10/26 06:40:05;;;;;;;39.60;27.27;;;9.70;99.90;;;;;;5070077;28;20024;-57
2021/10/26 06:42:33;;;;;;;33.65;22.40;;;9.80;99.90;;;;;;5070606;28;20021;-55
2021/10/26 06:44:58;;;;;;;36.45;25.15;;;9.80;99.90;;;;;;5069856;28;20028;-53
2021/10/26 06:47:24;;;;;;;34.97;25.55;;;9.80;99.90;;;;;;5070070;28;20081;-55
2021/10/26 06:49:50;;;;;;;35.72;24.73;;;9.80;99.90;;;;;;5070236;28;20059;-55
2021/10/26 06:52:16;;;;;;;37.35;25.63;;;9.80;99.90;;;;;;5070228;28;20040;-52
2021/10/26 06:54:42;;;;;;;34.95;23.48;;;9.80;99.90;;;;;;5070023;28;20040;-53
2021/10/26 06:57:08;;;;;;;32.47;24.52;;;9.90;99.90;;;;;;5069908;28;20034;-53
2021/10/26 06:59:34;;;;;;;35.08;25.35;;;9.90;99.90;;;;;;5070269;28;20120;-55
2021/10/26 07:02:00;;;;;;;34.22;24.60;;;9.90;99.90;;;;;;5058499;28;20033;-51
2021/10/26 07:04:26;;;;;;;39.58;26.30;;;10.00;99.90;;;;;;5093887;22;20050;-53
2021/10/26 07:06:51;;;;;;;38.13;25.60;;;10.00;99.90;;;;;;5069916;28;20024;-52
2021/10/26 07:09:17;;;;;;;38.70;24.95;;;10.00;99.90;;;;;;5071276;28;20028;-51
2021/10/26 07:11:42;;;;;;;38.72;25.33;;;10.00;99.90;;;;;;5070360;28;20024;-53
2021/10/26 07:14:08;;;;;;;41.53;25.13;;;10.10;99.90;;;;;;5070330;28;20044;-54
2021/10/26 07:16:34;;;;;;;41.33;25.33;;;10.10;99.90;;;;;;5070084;28;20074;-53
2021/10/26 07:19:00;;;;;;;45.28;27.27;;;10.10;99.90;;;;;;5078785;28;20442;-53
2021/10/26 07:21:25;;;;;;;36.20;25.60;;;10.10;99.90;;;;;;5069040;28;20108;-51
2021/10/26 07:23:51;;;;;;;36.70;24.70;;;10.10;99.90;;;;;;5083440;28;20059;-56
2021/10/26 07:26:17;;;;;;;39.70;24.67;;;10.10;99.90;;;;;;5088843;28;20435;-54
2021/10/26 07:28:42;;;;;;;37.05;24.63;;;10.10;99.90;;;;;;5083231;28;20025;-51
2021/10/26 07:31:08;;;;;;;32.92;23.27;;;10.10;99.90;;;;;;5069165;28;20103;-50
2021/10/26 07:33:35;;;;;;;34.63;24.05;;;10.20;99.90;;;;;;5069617;28;20032;-53
2021/10/26 07:36:04;;;;;;;40.00;25.23;;;10.20;99.90;;;;;;5068830;28;20029;-54
2021/10/26 07:38:40;;;;;;;37.25;24.85;;;10.20;99.90;;;;;;5069529;28;20016;-52
2021/10/26 07:41:06;;;;;;;36.58;24.38;;;10.20;99.90;;;;;;5088162;28;20396;-54
2021/10/26 07:43:34;;;;;;;36.95;24.95;;;10.20;99.90;;;;;;5089641;28;20123;-53
2021/10/26 07:46:00;;;;;;;38.55;25.95;;;10.30;99.90;;;;;;5089219;28;20028;-54
2021/10/26 07:48:27;;;;;;;37.10;23.00;;;10.30;99.90;;;;;;5089960;28;20023;-55
2021/10/26 07:51:00;;;;;;;31.83;22.92;;;10.30;99.90;;;;;;5089424;28;20072;-54
2021/10/26 07:53:30;;;;;;;32.60;22.58;;;10.30;99.90;;;;;;5089636;28;20027;-54
2021/10/26 07:56:01;;;;;;;35.05;24.45;;;10.40;99.90;;;;;;5089953;28;20453;-52
2021/10/26 07:58:27;;;;;;;37.35;23.38;;;10.40;99.90;;;;;;5089543;28;20081;-52
2021/10/26 08:00:53;;;;;;;33.45;22.50;;;10.40;99.90;;;;;;5082162;28;20021;-53
2021/10/26 08:03:20;;;;;;;35.85;24.73;;;10.50;99.90;;;;;;5069272;28;20564;-53
2021/10/26 08:05:46;;;;;;;36.58;23.70;;;10.50;99.90;;;;;;5068933;28;20043;-52
2021/10/26 08:08:11;;;;;;;33.10;22.83;;;10.50;99.90;;;;;;5069238;28;20624;-55
2021/10/26 08:10:37;;;;;;;32.65;23.67;;;10.50;99.90;;;;;;5069104;28;20028;-55
2021/10/26 08:13:04;;;;;;;37.95;23.60;;;10.50;99.90;;;;;;5069204;28;20024;-53
2021/10/26 08:15:29;;;;;;;32.22;23.35;;;10.60;99.90;;;;;;5069474;28;20051;-53
2021/10/26 08:17:56;;;;;;;32.85;23.02;;;10.60;99.90;;;;;;5068996;28;20412;-53
2021/10/26 08:20:21;;;;;;;37.03;24.65;;;10.60;99.90;;;;;;5068434;28;20021;-53
2021/10/26 08:22:47;;;;;;;32.78;22.33;;;10.70;99.90;;;;;;5069248;28;20557;-54
2021/10/26 08:25:25;;;;;;;34.13;23.70;;;10.70;99.90;;;;;;5069168;28;20052;-53
2021/10/26 08:27:55;;;;;;;33.92;22.75;;;10.70;99.90;;;;;;5069014;28;20689;-53
2021/10/26 08:30:32;;;;;;;32.15;23.23;;;10.80;99.90;;;;;;5068504;28;20024;-55
2021/10/26 08:35:25;;;;;;;32.53;21.48;;;10.90;99.90;;;;;;5067915;28;20522;-53
2021/10/26 08:37:57;;;;;;;30.17;21.50;;;10.90;99.90;;;;;;5068458;28;20495;-54
2021/10/26 08:40:24;;;;;;;32.42;21.85;;;11.00;99.90;;;;;;5081236;28;20024;-57
2021/10/26 08:42:51;;;;;;;33.72;22.48;;;11.00;99.90;;;;;;5088840;28;20427;-53
2021/10/26 08:45:23;;;;;;;30.55;20.00;;;11.00;99.90;;;;;;5088539;28;20077;-53
2021/10/26 08:47:49;;;;;;;26.42;20.17;;;11.10;99.90;;;;;;5088745;28;20024;-52
2021/10/26 08:50:16;;;;;;;29.05;19.15;;;11.10;99.90;;;;;;5086914;28;20023;-52
2021/10/26 08:52:42;;;;;;;26.88;19.92;;;11.10;99.90;;;;;;5087254;28;20024;-54
2021/10/26 08:55:09;;;;;;;25.80;18.98;;;11.10;99.90;;;;;;5088647;28;20028;-54
2021/10/26 08:57:35;;;;;;;30.35;19.13;;;11.20;99.90;;;;;;5088766;28;20024;-52
2021/10/26 09:00:07;;;;;;;29.77;18.92;;;11.20;99.90;;;;;;5088681;28;20032;-54
2021/10/26 09:02:40;;;;;;;28.73;19.23;;;11.30;99.90;;;;;;5089101;28;20020;-52
2021/10/26 09:05:11;;;;;;;29.15;18.75;;;11.20;99.90;;;;;;5088663;28;20058;-54
2021/10/26 09:07:37;;;;;;;25.27;18.42;;;11.30;99.90;;;;;;5088635;28;20028;-53
2021/10/26 09:10:14;;;;;;;20.35;16.25;;;11.30;99.90;;;;;;5087131;28;20024;-55
2021/10/26 09:17:57;;;;;;;24.00;16.30;;;11.40;99.90;;;;;;5089067;28;20059;-56
2021/10/26 09:20:27;;;;;;;23.90;15.40;;;11.40;99.90;;;;;;5088082;28;20496;-55
2021/10/26 09:22:59;;;;;;;23.38;15.20;;;11.40;99.90;;;;;;5088577;28;20024;-57
2021/10/26 09:25:37;;;;;;;21.00;15.40;;;11.40;99.90;;;;;;5088482;28;20031;-55
2021/10/26 09:28:12;;;;;;;19.92;15.45;;;11.50;99.90;;;;;;5088435;28;20507;-54
2021/10/26 09:30:39;;;;;;;22.13;15.88;;;11.50;99.90;;;;;;5088214;28;20081;-56
2021/10/26 09:33:08;;;;;;;22.65;15.35;;;11.60;99.90;;;;;;5087921;28;20020;-53
2021/10/26 09:35:34;;;;;;;25.35;15.63;;;11.60;99.90;;;;;;5088459;28;20032;-54
2021/10/26 09:38:00;;;;;;;19.92;13.43;;;11.60;99.90;;;;;;5088632;28;20519;-53
2021/10/26 09:40:43;;;;;;;21.60;13.98;;;11.70;99.90;;;;;;5074749;28;20021;-54
2021/10/26 09:43:11;;;;;;;19.48;13.27;;;11.70;99.90;;;;;;5067708;28;20024;-54
2021/10/26 09:45:37;;;;;;;19.48;11.50;;;11.70;99.90;;;;;;5067642;28;20060;-53
2021/10/26 09:48:17;;;;;;;18.95;12.73;;;11.70;99.90;;;;;;5068353;28;20017;-54
2021/10/26 09:50:43;;;;;;;16.38;12.23;;;11.70;99.90;;;;;;5067585;28;20032;-53
2021/10/26 09:53:14;;;;;;;18.15;12.25;;;11.70;99.90;;;;;;5067701;28;20439;-54
2021/10/26 09:55:46;;;;;;;17.23;12.50;;;11.70;99.90;;;;;;5067860;28;20555;-53
2021/10/26 09:58:14;;;;;;;20.27;13.00;;;11.80;99.90;;;;;;5067921;28;20030;-52
2021/10/26 10:00:42;;;;;;;17.77;11.77;;;11.80;99.90;;;;;;5067346;28;20517;-53
2021/10/26 10:03:09;;;;;;;15.45;10.98;;;11.90;99.90;;;;;;5067706;28;20040;-53
2021/10/26 10:05:42;;;;;;;15.88;10.48;;;11.80;99.90;;;;;;5070701;28;20052;-52
2021/10/26 10:08:33;;;;;;;17.63;11.20;;;11.80;99.90;;;;;;5081597;28;20516;-54
2021/10/26 10:11:05;;;;;;;14.73;11.27;;;11.90;99.90;;;;;;5071427;28;20020;-51
2021/10/26 10:13:31;;;;;;;19.95;12.65;;;11.90;99.90;;;;;;5090984;28;20020;-51
2021/10/26 10:15:57;;;;;;;17.75;11.55;;;12.00;99.90;;;;;;5088802;28;20039;-54
2021/10/26 10:18:24;;;;;;;16.23;11.43;;;12.00;99.90;;;;;;5089252;28;20028;-55
2021/10/26 10:20:52;;;;;;;12.93;10.32;;;12.00;99.90;;;;;;5089392;28;20062;-53
2021/10/26 10:23:20;;;;;;;17.13;10.25;;;12.00;99.90;;;;;;5090475;28;20035;-54
2021/10/26 10:25:49;;;;;;;15.32;10.40;;;12.10;99.90;;;;;;5091397;28;20028;-53
2021/10/26 10:28:18;;;;;;;14.80;9.88;;;12.10;99.90;;;;;;5088744;28;20061;-55
2021/10/26 10:30:44;;;;;;;16.15;10.55;;;12.10;99.90;;;;;;5070451;28;20049;-53
2021/10/26 10:33:10;;;;;;;14.10;10.90;;;12.20;99.90;;;;;;5069751;28;20492;-52
2021/10/26 10:35:38;;;;;;;18.65;11.60;;;12.20;99.90;;;;;;5079810;28;20040;-53
2021/10/26 10:38:06;;;;;;;16.85;11.23;;;12.20;99.90;;;;;;5070860;28;20024;-53
2021/10/26 10:40:32;;;;;;;16.15;10.77;;;12.20;99.90;;;;;;5084263;28;20568;-55
2021/10/26 10:42:59;;;;;;;15.60;10.10;;;12.20;99.90;;;;;;5090468;28;20028;-56
2021/10/26 10:45:34;;;;;;;15.27;11.13;;;12.20;99.90;;;;;;5090480;28;20023;-53
2021/10/26 10:48:02;;;;;;;17.80;9.73;;;12.20;99.90;;;;;;5090661;28;20066;-53
2021/10/26 10:50:38;;;;;;;17.60;11.05;;;12.20;99.90;;;;;;5090263;28;20048;-53
2021/10/26 10:53:21;;;;;;;16.42;11.88;;;12.20;99.90;;;;;;5090398;28;20044;-51
2021/10/26 10:56:09;;;;;;;15.98;10.75;;;12.30;99.90;;;;;;5089335;28;20107;-53
2021/10/26 10:58:43;;;;;;;13.13;10.98;;;12.50;99.90;;;;;;5090573;28;20693;-53
2021/10/26 11:01:35;;;;;;;15.60;10.15;;;12.70;99.90;;;;;;5089946;28;20410;-55
2021/10/26 11:04:20;;;;;;;15.15;9.88;;;12.80;99.90;;;;;;5071284;28;20032;-52
2021/10/26 11:06:46;;;;;;;16.00;10.30;;;12.90;99.90;;;;;;5070217;28;20070;-56
2021/10/26 11:09:34;;;;;;;13.57;9.90;;;13.00;99.90;;;;;;5070203;28;20066;-51
2021/10/26 11:12:27;;;;;;;13.15;9.50;;;13.00;99.90;;;;;;5069824;28;20028;-53
2021/10/26 11:14:55;;;;;;;15.25;10.57;;;13.00;99.90;;;;;;5068443;28;20149;-53
2021/10/26 11:17:33;;;;;;;12.63;9.23;;;13.00;99.90;;;;;;5069626;28;20063;-55
2021/10/26 11:20:07;;;;;;;11.82;8.95;;;13.00;99.90;;;;;;5069668;28;20575;-54
2021/10/26 11:22:48;;;;;;;14.13;9.02;;;13.10;99.90;;;;;;5069415;28;20035;-53
2021/10/26 11:25:31;;;;;;;12.27;9.45;;;13.20;99.90;;;;;;5068453;28;20028;-55
2021/10/26 11:27:57;;;;;;;13.98;8.48;;;13.10;99.90;;;;;;5069874;28;20106;-53
2021/10/26 11:30:28;;;;;;;10.70;8.45;;;13.00;99.90;;;;;;5069404;28;20028;-54
2021/10/26 11:33:10;;;;;;;11.35;8.38;;;12.90;99.90;;;;;;5069423;28;20134;-54
2021/10/26 11:35:55;;;;;;;11.48;7.82;;;12.90;99.90;;;;;;5069421;28;20027;-51
2021/10/26 11:38:23;;;;;;;11.13;7.80;;;12.90;99.90;;;;;;5069559;28;20094;-55
2021/10/26 11:40:56;;;;;;;12.60;8.70;;;13.00;99.90;;;;;;5085173;28;20037;-53
2021/10/26 11:43:23;;;;;;;12.13;7.72;;;13.10;99.90;;;;;;5089500;28;20484;-52
2021/10/26 11:45:57;;;;;;;12.80;7.82;;;13.00;99.90;;;;;;5089758;28;20107;-53
2021/10/26 11:48:44;;;;;;;12.27;8.13;;;12.90;99.90;;;;;;5089147;28;20547;-55
2021/10/26 11:51:28;;;;;;;;;;;12.80;99.90;;;;;;5078808;28;20109;-53
2021/10/26 11:53:57;;;;;;;10.73;8.27;;;12.70;99.90;;;;;;5069025;28;20436;-55
2021/10/26 11:56:28;;;;;;;10.38;8.23;;;12.70;99.90;;;;;;5082860;28;20165;-54
2021/10/26 11:59:12;;;;;;;11.02;7.80;;;12.70;99.90;;;;;;5088859;28;20047;-54
2021/10/26 12:01:47;;;;;;;12.60;9.27;;;12.80;99.90;;;;;;5088789;28;20051;-52
2021/10/26 12:04:34;;;;;;;14.57;9.70;;;12.80;99.90;;;;;;5086376;28;20089;-53
2021/10/26 12:07:03;;;;;;;12.18;8.52;;;12.80;99.90;;;;;;5069209;28;20033;-53
2021/10/26 12:09:33;;;;;;;15.55;8.98;;;12.80;99.90;;;;;;5068094;28;20016;-54
2021/10/26 12:12:04;;;;;;;12.63;8.32;;;12.90;99.90;;;;;;5068211;28;20391;-55
2021/10/26 12:14:38;;;;;;;13.13;8.88;;;12.90;99.90;;;;;;5069508;28;20039;-53
2021/10/26 12:17:07;;;;;;;11.75;9.07;;;12.90;99.90;;;;;;5069082;28;20009;-52
2021/10/26 12:19:40;;;;;;;11.23;7.70;;;12.90;99.90;;;;;;5067702;28;20799;-52
2021/10/26 12:22:31;;;;;;;11.70;9.18;;;12.90;99.90;;;;;;5085632;28;20039;-54
2021/10/26 12:25:20;;;;;;;11.38;8.80;;;12.90;99.90;;;;;;5069203;28;20462;-53
2021/10/26 12:27:55;;;;;;;11.02;8.00;;;12.90;99.90;;;;;;5067957;28;20025;-54
2021/10/26 12:30:28;;;;;;;13.93;8.88;;;12.90;99.90;;;;;;5086693;28;20103;-53
2021/10/26 12:33:06;;;;;;;14.82;8.95;;;12.90;99.90;;;;;;5086515;28;20051;-52
2021/10/26 12:35:46;;;;;;;10.93;8.35;;;12.90;99.90;;;;;;5087691;28;20027;-53
2021/10/26 12:38:51;;;;;;;14.05;8.48;;;12.90;99.90;;;;;;5088386;28;20165;-54
2021/10/26 12:41:19;;;;;;;14.25;8.82;;;12.90;99.90;;;;;;5053139;28;20032;-57
2021/10/26 12:43:49;;;;;;;12.27;9.07;;;12.90;99.90;;;;;;5068054;28;20024;-51
2021/10/26 12:46:22;;;;;;;14.00;8.70;;;12.90;99.90;;;;;;5068675;28;20021;-49
2021/10/26 12:48:48;;;;;;;11.68;9.48;;;12.90;99.90;;;;;;5067854;28;20028;-52